sensor_id;sensor_type;location;lat;lon;timestamp;P1;durP1;ratioP1;P2;durP2;ratioP2
75021;SDS011;63583;49.976;20.182;2024-03-22T00:00:29;36.92;;;17.92;;
75021;SDS011;63583;49.976;20.182;2024-03-22T00:03:15;39.10;;;19.00;;
75021;SDS011;63583;49.976;20.182;2024-03-22T00:05:41;38.30;;;19.15;;
75021;SDS011;63583;49.976;20.182;2024-03-22T00:08:06;37.65;;;19.10;;
75021;SDS011;63583;49.976;20.182;2024-03-22T00:10:34;36.92;;;19.42;;
75021;SDS011;63583;49.976;20.182;2024-03-22T00:13:00;41.28;;;18.67;;
75021;SDS011;63583;49.976;20.182;2024-03-22T00:15:26;42.10;;;20.25;;
75021;SDS011;63583;49.976;20.182;2024-03-22T00:17:51;38.47;;;18.48;;
75021;SDS011;63583;49.976;20.182;2024-03-22T00:20:17;40.58;;;19.08;;
75021;SDS011;63583;49.976;20.182;2024-03-22T00:22:43;39.42;;;19.20;;
75021;SDS011;63583;49.976;20.182;2024-03-22T00:25:09;34.63;;;18.85;;
75021;SDS011;63583;49.976;20.182;2024-03-22T00:27:34;36.13;;;19.02;;
75021;SDS011;63583;49.976;20.182;2024-03-22T00:30:00;35.67;;;18.15;;
75021;SDS011;63583;49.976;20.182;2024-03-22T00:32:26;38.53;;;19.08;;
75021;SDS011;63583;49.976;20.182;2024-03-22T00:34:52;34.45;;;20.17;;
75021;SDS011;63583;49.976;20.182;2024-03-22T00:37:18;40.55;;;19.17;;
75021;SDS011;63583;49.976;20.182;2024-03-22T00:39:44;37.63;;;19.38;;
75021;SDS011;63583;49.976;20.182;2024-03-22T00:42:09;36.40;;;19.50;;
75021;SDS011;63583;49.976;20.182;2024-03-22T00:44:35;42.63;;;19.40;;
75021;SDS011;63583;49.976;20.182;2024-03-22T00:47:01;36.53;;;20.10;;
75021;SDS011;63583;49.976;20.182;2024-03-22T00:49:29;41.08;;;20.88;;
75021;SDS011;63583;49.976;20.182;2024-03-22T00:51:55;38.28;;;19.60;;
75021;SDS011;63583;49.976;20.182;2024-03-22T00:54:22;44.72;;;20.30;;
75021;SDS011;63583;49.976;20.182;2024-03-22T00:56:47;42.30;;;20.83;;
75021;SDS011;63583;49.976;20.182;2024-03-22T00:59:13;43.50;;;21.67;;
75021;SDS011;63583;49.976;20.182;2024-03-22T01:01:39;43.90;;;20.73;;
75021;SDS011;63583;49.976;20.182;2024-03-22T01:04:05;37.45;;;19.88;;
75021;SDS011;63583;49.976;20.182;2024-03-22T01:06:30;41.20;;;20.83;;
75021;SDS011;63583;49.976;20.182;2024-03-22T01:08:56;39.45;;;21.45;;
75021;SDS011;63583;49.976;20.182;2024-03-22T01:11:22;43.83;;;20.80;;
75021;SDS011;63583;49.976;20.182;2024-03-22T01:13:48;38.28;;;19.60;;
75021;SDS011;63583;49.976;20.182;2024-03-22T01:16:13;44.38;;;21.35;;
75021;SDS011;63583;49.976;20.182;2024-03-22T01:18:39;41.65;;;21.08;;
75021;SDS011;63583;49.976;20.182;2024-03-22T01:21:05;45.83;;;22.30;;
75021;SDS011;63583;49.976;20.182;2024-03-22T01:23:31;41.15;;;22.10;;
75021;SDS011;63583;49.976;20.182;2024-03-22T01:25:56;42.88;;;23.00;;
75021;SDS011;63583;49.976;20.182;2024-03-22T01:28:23;40.30;;;21.63;;
75021;SDS011;63583;49.976;20.182;2024-03-22T01:30:48;48.00;;;24.00;;
75021;SDS011;63583;49.976;20.182;2024-03-22T01:33:14;43.80;;;22.45;;
75021;SDS011;63583;49.976;20.182;2024-03-22T01:35:40;44.10;;;23.45;;
75021;SDS011;63583;49.976;20.182;2024-03-22T01:38:06;47.75;;;23.85;;
75021;SDS011;63583;49.976;20.182;2024-03-22T01:40:32;45.85;;;23.40;;
75021;SDS011;63583;49.976;20.182;2024-03-22T01:42:58;43.53;;;23.35;;
75021;SDS011;63583;49.976;20.182;2024-03-22T01:45:25;42.83;;;22.95;;
75021;SDS011;63583;49.976;20.182;2024-03-22T01:47:52;48.20;;;23.17;;
75021;SDS011;63583;49.976;20.182;2024-03-22T01:50:20;41.40;;;23.98;;
75021;SDS011;63583;49.976;20.182;2024-03-22T01:52:46;42.78;;;24.30;;
75021;SDS011;63583;49.976;20.182;2024-03-22T01:55:12;45.03;;;23.45;;
75021;SDS011;63583;49.976;20.182;2024-03-22T01:57:39;42.25;;;23.08;;
75021;SDS011;63583;49.976;20.182;2024-03-22T02:00:05;49.30;;;23.80;;
75021;SDS011;63583;49.976;20.182;2024-03-22T02:02:34;42.28;;;23.27;;
75021;SDS011;63583;49.976;20.182;2024-03-22T02:05:10;45.30;;;24.42;;
75021;SDS011;63583;49.976;20.182;2024-03-22T02:07:37;44.47;;;24.08;;
75021;SDS011;63583;49.976;20.182;2024-03-22T02:10:03;46.85;;;24.17;;
75021;SDS011;63583;49.976;20.182;2024-03-22T02:12:29;45.47;;;23.77;;
75021;SDS011;63583;49.976;20.182;2024-03-22T02:14:57;41.08;;;21.23;;
75021;SDS011;63583;49.976;20.182;2024-03-22T02:17:23;44.85;;;23.85;;
75021;SDS011;63583;49.976;20.182;2024-03-22T02:19:49;48.22;;;24.08;;
75021;SDS011;63583;49.976;20.182;2024-03-22T02:22:15;43.28;;;22.00;;
75021;SDS011;63583;49.976;20.182;2024-03-22T02:24:40;47.25;;;23.63;;
75021;SDS011;63583;49.976;20.182;2024-03-22T02:27:06;44.35;;;23.83;;
75021;SDS011;63583;49.976;20.182;2024-03-22T02:29:32;49.03;;;25.05;;
75021;SDS011;63583;49.976;20.182;2024-03-22T02:31:58;44.55;;;24.42;;
75021;SDS011;63583;49.976;20.182;2024-03-22T02:34:24;49.45;;;24.30;;
75021;SDS011;63583;49.976;20.182;2024-03-22T02:36:50;43.00;;;21.50;;
75021;SDS011;63583;49.976;20.182;2024-03-22T02:39:15;42.17;;;22.90;;
75021;SDS011;63583;49.976;20.182;2024-03-22T02:41:41;47.90;;;24.38;;
75021;SDS011;63583;49.976;20.182;2024-03-22T02:44:07;46.20;;;23.58;;
75021;SDS011;63583;49.976;20.182;2024-03-22T02:46:33;44.53;;;22.23;;
75021;SDS011;63583;49.976;20.182;2024-03-22T02:48:59;42.80;;;23.15;;
75021;SDS011;63583;49.976;20.182;2024-03-22T02:51:26;47.45;;;23.13;;
75021;SDS011;63583;49.976;20.182;2024-03-22T02:53:51;43.40;;;22.38;;
75021;SDS011;63583;49.976;20.182;2024-03-22T02:56:17;42.45;;;22.77;;
75021;SDS011;63583;49.976;20.182;2024-03-22T02:58:43;39.88;;;22.33;;
75021;SDS011;63583;49.976;20.182;2024-03-22T03:01:09;42.22;;;21.60;;
75021;SDS011;63583;49.976;20.182;2024-03-22T03:03:34;41.78;;;20.98;;
75021;SDS011;63583;49.976;20.182;2024-03-22T03:06:00;43.67;;;21.75;;
75021;SDS011;63583;49.976;20.182;2024-03-22T03:08:26;41.42;;;21.52;;
75021;SDS011;63583;49.976;20.182;2024-03-22T03:10:52;46.85;;;22.40;;
75021;SDS011;63583;49.976;20.182;2024-03-22T03:13:18;44.42;;;22.48;;
75021;SDS011;63583;49.976;20.182;2024-03-22T03:15:44;41.25;;;21.88;;
75021;SDS011;63583;49.976;20.182;2024-03-22T03:18:09;39.60;;;21.20;;
75021;SDS011;63583;49.976;20.182;2024-03-22T03:20:35;40.53;;;21.02;;
75021;SDS011;63583;49.976;20.182;2024-03-22T03:23:01;43.03;;;22.67;;
75021;SDS011;63583;49.976;20.182;2024-03-22T03:25:27;40.40;;;21.88;;
75021;SDS011;63583;49.976;20.182;2024-03-22T03:27:53;45.33;;;22.27;;
75021;SDS011;63583;49.976;20.182;2024-03-22T03:30:19;38.38;;;20.20;;
75021;SDS011;63583;49.976;20.182;2024-03-22T03:32:44;37.05;;;20.88;;
75021;SDS011;63583;49.976;20.182;2024-03-22T03:35:10;43.08;;;21.08;;
75021;SDS011;63583;49.976;20.182;2024-03-22T03:37:36;36.40;;;20.35;;
75021;SDS011;63583;49.976;20.182;2024-03-22T03:40:02;37.50;;;19.65;;
75021;SDS011;63583;49.976;20.182;2024-03-22T03:42:27;36.83;;;21.42;;
75021;SDS011;63583;49.976;20.182;2024-03-22T03:44:53;35.67;;;19.17;;
75021;SDS011;63583;49.976;20.182;2024-03-22T03:47:19;40.22;;;20.55;;
75021;SDS011;63583;49.976;20.182;2024-03-22T03:49:45;41.60;;;22.60;;
75021;SDS011;63583;49.976;20.182;2024-03-22T03:52:11;40.80;;;20.50;;
75021;SDS011;63583;49.976;20.182;2024-03-22T03:54:37;41.53;;;22.48;;
75021;SDS011;63583;49.976;20.182;2024-03-22T03:57:03;37.92;;;21.50;;
75021;SDS011;63583;49.976;20.182;2024-03-22T03:59:29;40.60;;;21.98;;
75021;SDS011;63583;49.976;20.182;2024-03-22T04:01:55;41.28;;;22.13;;
75021;SDS011;63583;49.976;20.182;2024-03-22T04:04:21;40.95;;;21.85;;
75021;SDS011;63583;49.976;20.182;2024-03-22T04:06:47;47.25;;;23.05;;
75021;SDS011;63583;49.976;20.182;2024-03-22T04:09:13;44.35;;;22.92;;
75021;SDS011;63583;49.976;20.182;2024-03-22T04:11:38;42.92;;;21.55;;
75021;SDS011;63583;49.976;20.182;2024-03-22T04:14:04;43.17;;;24.38;;
75021;SDS011;63583;49.976;20.182;2024-03-22T04:16:31;44.15;;;22.80;;
75021;SDS011;63583;49.976;20.182;2024-03-22T04:18:58;44.40;;;23.63;;
75021;SDS011;63583;49.976;20.182;2024-03-22T04:21:24;47.72;;;24.95;;
75021;SDS011;63583;49.976;20.182;2024-03-22T04:23:50;46.63;;;24.02;;
75021;SDS011;63583;49.976;20.182;2024-03-22T04:26:15;47.38;;;26.42;;
75021;SDS011;63583;49.976;20.182;2024-03-22T04:28:41;46.70;;;25.52;;
75021;SDS011;63583;49.976;20.182;2024-03-22T04:31:07;44.20;;;23.83;;
75021;SDS011;63583;49.976;20.182;2024-03-22T04:33:37;48.20;;;23.88;;
75021;SDS011;63583;49.976;20.182;2024-03-22T04:36:03;46.78;;;23.20;;
75021;SDS011;63583;49.976;20.182;2024-03-22T04:38:31;43.55;;;23.88;;
75021;SDS011;63583;49.976;20.182;2024-03-22T04:40:57;46.40;;;24.80;;
75021;SDS011;63583;49.976;20.182;2024-03-22T04:43:23;43.42;;;24.92;;
75021;SDS011;63583;49.976;20.182;2024-03-22T04:45:49;44.53;;;22.90;;
75021;SDS011;63583;49.976;20.182;2024-03-22T04:48:20;49.45;;;25.02;;
75021;SDS011;63583;49.976;20.182;2024-03-22T04:50:50;45.63;;;24.15;;
75021;SDS011;63583;49.976;20.182;2024-03-22T04:53:17;44.90;;;24.55;;
75021;SDS011;63583;49.976;20.182;2024-03-22T04:55:44;44.60;;;23.17;;
75021;SDS011;63583;49.976;20.182;2024-03-22T04:58:13;44.42;;;23.30;;
75021;SDS011;63583;49.976;20.182;2024-03-22T05:00:43;43.85;;;24.35;;
75021;SDS011;63583;49.976;20.182;2024-03-22T05:03:10;45.17;;;22.83;;
75021;SDS011;63583;49.976;20.182;2024-03-22T05:05:37;44.95;;;24.85;;
75021;SDS011;63583;49.976;20.182;2024-03-22T05:08:04;46.08;;;23.73;;
75021;SDS011;63583;49.976;20.182;2024-03-22T05:10:30;45.13;;;23.83;;
75021;SDS011;63583;49.976;20.182;2024-03-22T05:12:56;43.83;;;23.48;;
75021;SDS011;63583;49.976;20.182;2024-03-22T05:15:22;44.92;;;24.75;;
75021;SDS011;63583;49.976;20.182;2024-03-22T05:17:49;49.58;;;26.67;;
75021;SDS011;63583;49.976;20.182;2024-03-22T05:20:14;45.85;;;25.27;;
75021;SDS011;63583;49.976;20.182;2024-03-22T05:22:42;47.40;;;24.52;;
75021;SDS011;63583;49.976;20.182;2024-03-22T05:25:08;44.83;;;24.90;;
75021;SDS011;63583;49.976;20.182;2024-03-22T05:27:34;42.80;;;25.13;;
75021;SDS011;63583;49.976;20.182;2024-03-22T05:30:00;46.55;;;23.45;;
75021;SDS011;63583;49.976;20.182;2024-03-22T05:32:26;44.78;;;23.67;;
75021;SDS011;63583;49.976;20.182;2024-03-22T05:34:52;42.65;;;23.30;;
75021;SDS011;63583;49.976;20.182;2024-03-22T05:37:18;43.75;;;23.73;;
75021;SDS011;63583;49.976;20.182;2024-03-22T05:39:45;45.15;;;22.50;;
75021;SDS011;63583;49.976;20.182;2024-03-22T05:42:11;38.38;;;21.30;;
75021;SDS011;63583;49.976;20.182;2024-03-22T05:44:36;40.58;;;23.33;;
75021;SDS011;63583;49.976;20.182;2024-03-22T05:47:02;38.28;;;20.48;;
75021;SDS011;63583;49.976;20.182;2024-03-22T05:49:28;44.17;;;22.63;;
75021;SDS011;63583;49.976;20.182;2024-03-22T05:51:55;41.78;;;21.45;;
75021;SDS011;63583;49.976;20.182;2024-03-22T05:54:21;41.85;;;22.48;;
75021;SDS011;63583;49.976;20.182;2024-03-22T05:56:46;40.72;;;22.70;;
75021;SDS011;63583;49.976;20.182;2024-03-22T05:59:12;42.28;;;22.50;;
75021;SDS011;63583;49.976;20.182;2024-03-22T06:01:38;47.60;;;24.08;;
75021;SDS011;63583;49.976;20.182;2024-03-22T06:04:04;39.92;;;23.00;;
75021;SDS011;63583;49.976;20.182;2024-03-22T06:06:34;41.63;;;22.17;;
75021;SDS011;63583;49.976;20.182;2024-03-22T06:09:00;41.17;;;21.33;;
75021;SDS011;63583;49.976;20.182;2024-03-22T06:11:29;40.13;;;22.33;;
75021;SDS011;63583;49.976;20.182;2024-03-22T06:13:55;42.42;;;21.17;;
75021;SDS011;63583;49.976;20.182;2024-03-22T06:16:21;40.63;;;21.67;;
75021;SDS011;63583;49.976;20.182;2024-03-22T06:18:47;40.63;;;22.33;;
75021;SDS011;63583;49.976;20.182;2024-03-22T06:21:13;41.97;;;22.05;;
75021;SDS011;63583;49.976;20.182;2024-03-22T06:23:50;43.78;;;23.08;;
75021;SDS011;63583;49.976;20.182;2024-03-22T06:26:17;42.35;;;22.05;;
75021;SDS011;63583;49.976;20.182;2024-03-22T06:28:42;38.88;;;21.55;;
75021;SDS011;63583;49.976;20.182;2024-03-22T06:31:08;44.60;;;22.60;;
75021;SDS011;63583;49.976;20.182;2024-03-22T06:33:34;44.83;;;23.02;;
75021;SDS011;63583;49.976;20.182;2024-03-22T06:36:02;40.50;;;21.52;;
75021;SDS011;63583;49.976;20.182;2024-03-22T06:38:28;40.72;;;21.05;;
75021;SDS011;63583;49.976;20.182;2024-03-22T06:40:54;42.90;;;22.60;;
75021;SDS011;63583;49.976;20.182;2024-03-22T06:43:20;42.55;;;21.00;;
75021;SDS011;63583;49.976;20.182;2024-03-22T06:45:46;39.72;;;20.55;;
75021;SDS011;63583;49.976;20.182;2024-03-22T06:48:13;36.85;;;21.05;;
75021;SDS011;63583;49.976;20.182;2024-03-22T06:50:41;44.28;;;23.45;;
75021;SDS011;63583;49.976;20.182;2024-03-22T06:53:07;39.25;;;20.77;;
75021;SDS011;63583;49.976;20.182;2024-03-22T06:55:33;40.15;;;21.33;;
75021;SDS011;63583;49.976;20.182;2024-03-22T06:57:58;41.92;;;21.90;;
75021;SDS011;63583;49.976;20.182;2024-03-22T07:00:24;38.63;;;22.38;;
75021;SDS011;63583;49.976;20.182;2024-03-22T07:02:50;41.22;;;20.88;;
75021;SDS011;63583;49.976;20.182;2024-03-22T07:05:16;41.80;;;21.42;;
75021;SDS011;63583;49.976;20.182;2024-03-22T07:07:41;41.15;;;22.65;;
75021;SDS011;63583;49.976;20.182;2024-03-22T07:10:07;44.72;;;21.25;;
75021;SDS011;63583;49.976;20.182;2024-03-22T07:12:33;45.33;;;22.67;;
75021;SDS011;63583;49.976;20.182;2024-03-22T07:15:00;44.42;;;22.23;;
75021;SDS011;63583;49.976;20.182;2024-03-22T07:17:28;40.78;;;20.88;;
75021;SDS011;63583;49.976;20.182;2024-03-22T07:19:54;43.92;;;21.65;;
75021;SDS011;63583;49.976;20.182;2024-03-22T07:22:21;43.80;;;22.00;;
75021;SDS011;63583;49.976;20.182;2024-03-22T07:24:48;42.05;;;22.20;;
75021;SDS011;63583;49.976;20.182;2024-03-22T07:27:14;40.72;;;22.05;;
75021;SDS011;63583;49.976;20.182;2024-03-22T07:29:41;38.47;;;20.60;;
75021;SDS011;63583;49.976;20.182;2024-03-22T07:32:06;39.97;;;20.08;;
75021;SDS011;63583;49.976;20.182;2024-03-22T07:34:32;34.97;;;19.42;;
75021;SDS011;63583;49.976;20.182;2024-03-22T07:36:58;37.00;;;20.10;;
75021;SDS011;63583;49.976;20.182;2024-03-22T07:39:24;39.53;;;20.70;;
75021;SDS011;63583;49.976;20.182;2024-03-22T07:41:50;39.42;;;22.00;;
75021;SDS011;63583;49.976;20.182;2024-03-22T07:44:17;39.55;;;20.33;;
75021;SDS011;63583;49.976;20.182;2024-03-22T07:46:45;39.47;;;20.95;;
75021;SDS011;63583;49.976;20.182;2024-03-22T07:49:12;41.47;;;21.85;;
75021;SDS011;63583;49.976;20.182;2024-03-22T07:51:38;41.15;;;21.65;;
75021;SDS011;63583;49.976;20.182;2024-03-22T07:54:04;39.97;;;21.25;;
75021;SDS011;63583;49.976;20.182;2024-03-22T07:56:30;41.30;;;21.35;;
75021;SDS011;63583;49.976;20.182;2024-03-22T07:58:55;40.25;;;20.58;;
75021;SDS011;63583;49.976;20.182;2024-03-22T08:01:22;36.50;;;19.25;;
75021;SDS011;63583;49.976;20.182;2024-03-22T08:03:49;41.15;;;21.70;;
75021;SDS011;63583;49.976;20.182;2024-03-22T08:06:15;43.10;;;20.90;;
75021;SDS011;63583;49.976;20.182;2024-03-22T08:08:41;41.63;;;20.90;;
75021;SDS011;63583;49.976;20.182;2024-03-22T08:11:06;46.70;;;22.52;;
75021;SDS011;63583;49.976;20.182;2024-03-22T08:13:32;49.45;;;22.35;;
75021;SDS011;63583;49.976;20.182;2024-03-22T08:15:58;39.40;;;20.33;;
75021;SDS011;63583;49.976;20.182;2024-03-22T08:18:24;38.90;;;20.23;;
75021;SDS011;63583;49.976;20.182;2024-03-22T08:20:49;40.92;;;20.10;;
75021;SDS011;63583;49.976;20.182;2024-03-22T08:23:15;38.95;;;19.77;;
75021;SDS011;63583;49.976;20.182;2024-03-22T08:25:43;40.85;;;19.40;;
75021;SDS011;63583;49.976;20.182;2024-03-22T08:28:09;41.47;;;21.05;;
75021;SDS011;63583;49.976;20.182;2024-03-22T08:30:36;37.53;;;18.92;;
75021;SDS011;63583;49.976;20.182;2024-03-22T08:33:03;37.92;;;20.33;;
75021;SDS011;63583;49.976;20.182;2024-03-22T08:35:29;41.33;;;20.23;;
75021;SDS011;63583;49.976;20.182;2024-03-22T08:37:56;42.22;;;21.23;;
75021;SDS011;63583;49.976;20.182;2024-03-22T08:40:22;39.78;;;21.33;;
75021;SDS011;63583;49.976;20.182;2024-03-22T08:42:48;40.13;;;20.55;;
75021;SDS011;63583;49.976;20.182;2024-03-22T08:45:14;43.78;;;22.42;;
75021;SDS011;63583;49.976;20.182;2024-03-22T08:47:42;44.35;;;21.80;;
75021;SDS011;63583;49.976;20.182;2024-03-22T08:50:10;41.30;;;21.27;;
75021;SDS011;63583;49.976;20.182;2024-03-22T08:52:37;39.13;;;20.58;;
75021;SDS011;63583;49.976;20.182;2024-03-22T08:55:03;39.95;;;20.27;;
75021;SDS011;63583;49.976;20.182;2024-03-22T08:57:32;41.22;;;20.90;;
75021;SDS011;63583;49.976;20.182;2024-03-22T08:59:58;40.00;;;21.33;;
75021;SDS011;63583;49.976;20.182;2024-03-22T09:02:24;42.03;;;21.15;;
75021;SDS011;63583;49.976;20.182;2024-03-22T09:04:50;36.95;;;20.23;;
75021;SDS011;63583;49.976;20.182;2024-03-22T09:07:17;42.58;;;21.50;;
75021;SDS011;63583;49.976;20.182;2024-03-22T09:09:42;40.00;;;20.63;;
75021;SDS011;63583;49.976;20.182;2024-03-22T09:12:08;38.10;;;20.35;;
75021;SDS011;63583;49.976;20.182;2024-03-22T09:14:34;39.03;;;20.67;;
75021;SDS011;63583;49.976;20.182;2024-03-22T09:17:00;41.80;;;21.90;;
75021;SDS011;63583;49.976;20.182;2024-03-22T09:19:26;39.63;;;21.27;;
75021;SDS011;63583;49.976;20.182;2024-03-22T09:21:53;36.90;;;18.95;;
75021;SDS011;63583;49.976;20.182;2024-03-22T09:24:19;34.58;;;18.27;;
75021;SDS011;63583;49.976;20.182;2024-03-22T09:26:45;36.10;;;19.08;;
75021;SDS011;63583;49.976;20.182;2024-03-22T09:29:13;33.22;;;17.23;;
75021;SDS011;63583;49.976;20.182;2024-03-22T09:31:39;31.67;;;17.15;;
75021;SDS011;63583;49.976;20.182;2024-03-22T09:34:04;31.40;;;16.48;;
75021;SDS011;63583;49.976;20.182;2024-03-22T09:36:31;26.13;;;13.68;;
75021;SDS011;63583;49.976;20.182;2024-03-22T09:39:01;23.67;;;12.80;;
75021;SDS011;63583;49.976;20.182;2024-03-22T09:41:27;27.63;;;13.95;;
75021;SDS011;63583;49.976;20.182;2024-03-22T09:43:57;22.35;;;11.27;;
75021;SDS011;63583;49.976;20.182;2024-03-22T09:46:24;20.98;;;11.13;;
75021;SDS011;63583;49.976;20.182;2024-03-22T09:48:50;23.50;;;10.90;;
75021;SDS011;63583;49.976;20.182;2024-03-22T09:51:18;22.45;;;10.90;;
75021;SDS011;63583;49.976;20.182;2024-03-22T09:53:44;19.92;;;11.35;;
75021;SDS011;63583;49.976;20.182;2024-03-22T09:56:14;20.67;;;11.48;;
75021;SDS011;63583;49.976;20.182;2024-03-22T09:58:40;20.80;;;11.75;;
75021;SDS011;63583;49.976;20.182;2024-03-22T10:01:07;20.92;;;11.27;;
75021;SDS011;63583;49.976;20.182;2024-03-22T10:03:33;22.35;;;12.63;;
75021;SDS011;63583;49.976;20.182;2024-03-22T10:06:00;21.70;;;12.30;;
75021;SDS011;63583;49.976;20.182;2024-03-22T10:08:25;22.20;;;11.38;;
75021;SDS011;63583;49.976;20.182;2024-03-22T10:10:51;27.52;;;12.40;;
75021;SDS011;63583;49.976;20.182;2024-03-22T10:13:17;24.13;;;11.38;;
75021;SDS011;63583;49.976;20.182;2024-03-22T10:15:43;19.63;;;10.70;;
75021;SDS011;63583;49.976;20.182;2024-03-22T10:18:09;22.85;;;10.85;;
75021;SDS011;63583;49.976;20.182;2024-03-22T10:20:36;22.15;;;11.95;;
75021;SDS011;63583;49.976;20.182;2024-03-22T10:23:02;19.98;;;10.52;;
75021;SDS011;63583;49.976;20.182;2024-03-22T10:25:28;17.42;;;9.80;;
75021;SDS011;63583;49.976;20.182;2024-03-22T10:27:54;19.17;;;9.80;;
75021;SDS011;63583;49.976;20.182;2024-03-22T10:30:22;20.13;;;9.85;;
75021;SDS011;63583;49.976;20.182;2024-03-22T10:32:49;20.90;;;10.60;;
75021;SDS011;63583;49.976;20.182;2024-03-22T10:35:15;20.35;;;10.65;;
75021;SDS011;63583;49.976;20.182;2024-03-22T10:37:42;21.10;;;11.32;;
75021;SDS011;63583;49.976;20.182;2024-03-22T10:40:08;23.60;;;10.93;;
75021;SDS011;63583;49.976;20.182;2024-03-22T10:42:35;21.77;;;10.77;;
75021;SDS011;63583;49.976;20.182;2024-03-22T10:45:05;20.38;;;10.05;;
75021;SDS011;63583;49.976;20.182;2024-03-22T10:47:33;18.95;;;10.48;;
75021;SDS011;63583;49.976;20.182;2024-03-22T10:50:07;20.70;;;10.40;;
75021;SDS011;63583;49.976;20.182;2024-03-22T10:52:41;22.42;;;10.18;;
75021;SDS011;63583;49.976;20.182;2024-03-22T10:55:14;21.02;;;10.02;;
75021;SDS011;63583;49.976;20.182;2024-03-22T10:57:48;19.27;;;9.50;;
75021;SDS011;63583;49.976;20.182;2024-03-22T11:00:14;19.52;;;10.18;;
75021;SDS011;63583;49.976;20.182;2024-03-22T11:02:43;20.17;;;9.93;;
75021;SDS011;63583;49.976;20.182;2024-03-22T11:05:17;20.90;;;9.82;;
75021;SDS011;63583;49.976;20.182;2024-03-22T11:07:43;17.33;;;9.02;;
75021;SDS011;63583;49.976;20.182;2024-03-22T11:10:13;16.63;;;9.18;;
75021;SDS011;63583;49.976;20.182;2024-03-22T11:12:39;17.80;;;9.70;;
75021;SDS011;63583;49.976;20.182;2024-03-22T11:15:06;20.67;;;10.07;;
75021;SDS011;63583;49.976;20.182;2024-03-22T11:17:32;18.77;;;9.93;;
75021;SDS011;63583;49.976;20.182;2024-03-22T11:19:58;18.83;;;10.50;;
75021;SDS011;63583;49.976;20.182;2024-03-22T11:22:27;17.63;;;10.00;;
75021;SDS011;63583;49.976;20.182;2024-03-22T11:24:53;19.40;;;10.45;;
75021;SDS011;63583;49.976;20.182;2024-03-22T11:27:19;20.80;;;11.45;;
75021;SDS011;63583;49.976;20.182;2024-03-22T11:29:45;19.25;;;9.75;;
75021;SDS011;63583;49.976;20.182;2024-03-22T11:32:12;25.40;;;11.45;;
75021;SDS011;63583;49.976;20.182;2024-03-22T11:34:38;20.02;;;11.52;;
75021;SDS011;63583;49.976;20.182;2024-03-22T11:37:07;22.05;;;11.02;;
75021;SDS011;63583;49.976;20.182;2024-03-22T11:39:39;22.10;;;12.02;;
75021;SDS011;63583;49.976;20.182;2024-03-22T11:42:05;23.63;;;12.85;;
75021;SDS011;63583;49.976;20.182;2024-03-22T11:44:33;20.45;;;11.32;;
75021;SDS011;63583;49.976;20.182;2024-03-22T11:47:02;21.58;;;11.90;;
75021;SDS011;63583;49.976;20.182;2024-03-22T11:49:28;23.50;;;11.98;;
75021;SDS011;63583;49.976;20.182;2024-03-22T11:51:55;21.20;;;11.68;;
75021;SDS011;63583;49.976;20.182;2024-03-22T11:54:22;21.67;;;11.30;;
75021;SDS011;63583;49.976;20.182;2024-03-22T11:56:51;20.63;;;12.45;;
75021;SDS011;63583;49.976;20.182;2024-03-22T11:59:20;23.48;;;12.15;;
75021;SDS011;63583;49.976;20.182;2024-03-22T12:01:46;22.08;;;12.75;;
75021;SDS011;63583;49.976;20.182;2024-03-22T12:04:12;22.17;;;12.18;;
75021;SDS011;63583;49.976;20.182;2024-03-22T12:06:44;21.63;;;12.75;;
75021;SDS011;63583;49.976;20.182;2024-03-22T12:09:11;24.50;;;12.57;;
75021;SDS011;63583;49.976;20.182;2024-03-22T12:11:39;25.15;;;13.15;;
75021;SDS011;63583;49.976;20.182;2024-03-22T12:14:06;22.30;;;12.40;;
75021;SDS011;63583;49.976;20.182;2024-03-22T12:16:31;23.13;;;12.77;;
75021;SDS011;63583;49.976;20.182;2024-03-22T12:18:57;22.90;;;12.82;;
75021;SDS011;63583;49.976;20.182;2024-03-22T12:21:24;22.02;;;12.52;;
75021;SDS011;63583;49.976;20.182;2024-03-22T12:23:50;20.90;;;12.10;;
75021;SDS011;63583;49.976;20.182;2024-03-22T12:26:16;23.42;;;12.25;;
75021;SDS011;63583;49.976;20.182;2024-03-22T12:28:42;24.42;;;13.00;;
75021;SDS011;63583;49.976;20.182;2024-03-22T12:31:08;23.10;;;12.65;;
75021;SDS011;63583;49.976;20.182;2024-03-22T12:33:36;23.23;;;13.25;;
75021;SDS011;63583;49.976;20.182;2024-03-22T12:36:02;23.08;;;12.13;;
75021;SDS011;63583;49.976;20.182;2024-03-22T12:38:29;24.48;;;11.80;;
75021;SDS011;63583;49.976;20.182;2024-03-22T12:40:55;23.23;;;12.75;;
75021;SDS011;63583;49.976;20.182;2024-03-22T12:43:22;20.92;;;11.55;;
75021;SDS011;63583;49.976;20.182;2024-03-22T12:45:47;21.58;;;12.55;;
75021;SDS011;63583;49.976;20.182;2024-03-22T12:48:13;23.30;;;12.88;;
75021;SDS011;63583;49.976;20.182;2024-03-22T12:50:39;20.25;;;11.88;;
75021;SDS011;63583;49.976;20.182;2024-03-22T12:53:05;24.70;;;12.75;;
75021;SDS011;63583;49.976;20.182;2024-03-22T12:55:30;22.10;;;12.32;;
75021;SDS011;63583;49.976;20.182;2024-03-22T12:58:00;23.48;;;13.15;;
75021;SDS011;63583;49.976;20.182;2024-03-22T13:00:25;22.52;;;12.75;;
75021;SDS011;63583;49.976;20.182;2024-03-22T13:02:51;21.98;;;13.18;;
75021;SDS011;63583;49.976;20.182;2024-03-22T13:05:17;23.92;;;14.48;;
75021;SDS011;63583;49.976;20.182;2024-03-22T13:07:43;23.10;;;13.15;;
75021;SDS011;63583;49.976;20.182;2024-03-22T13:10:09;22.48;;;12.63;;
75021;SDS011;63583;49.976;20.182;2024-03-22T13:12:35;22.67;;;11.77;;
75021;SDS011;63583;49.976;20.182;2024-03-22T13:15:01;25.15;;;12.40;;
75021;SDS011;63583;49.976;20.182;2024-03-22T13:17:28;22.15;;;11.65;;
75021;SDS011;63583;49.976;20.182;2024-03-22T13:19:53;22.67;;;12.50;;
75021;SDS011;63583;49.976;20.182;2024-03-22T13:22:19;23.23;;;12.35;;
75021;SDS011;63583;49.976;20.182;2024-03-22T13:24:45;23.75;;;12.60;;
75021;SDS011;63583;49.976;20.182;2024-03-22T13:27:12;23.38;;;12.75;;
75021;SDS011;63583;49.976;20.182;2024-03-22T13:29:39;23.90;;;12.65;;
75021;SDS011;63583;49.976;20.182;2024-03-22T13:32:05;25.73;;;13.10;;
75021;SDS011;63583;49.976;20.182;2024-03-22T13:34:36;23.75;;;13.02;;
75021;SDS011;63583;49.976;20.182;2024-03-22T13:37:02;24.50;;;12.23;;
75021;SDS011;63583;49.976;20.182;2024-03-22T13:39:28;26.70;;;12.57;;
75021;SDS011;63583;49.976;20.182;2024-03-22T13:41:56;23.75;;;12.23;;
75021;SDS011;63583;49.976;20.182;2024-03-22T13:44:22;25.50;;;13.70;;
75021;SDS011;63583;49.976;20.182;2024-03-22T13:46:49;26.67;;;13.48;;
75021;SDS011;63583;49.976;20.182;2024-03-22T13:49:16;24.40;;;12.93;;
75021;SDS011;63583;49.976;20.182;2024-03-22T13:51:43;23.48;;;12.45;;
75021;SDS011;63583;49.976;20.182;2024-03-22T13:54:09;24.45;;;12.65;;
75021;SDS011;63583;49.976;20.182;2024-03-22T13:56:37;25.63;;;13.75;;
75021;SDS011;63583;49.976;20.182;2024-03-22T13:59:05;21.77;;;12.90;;
75021;SDS011;63583;49.976;20.182;2024-03-22T14:01:33;25.13;;;13.50;;
75021;SDS011;63583;49.976;20.182;2024-03-22T14:03:59;24.70;;;13.85;;